createdAt,value
2018-12-08T00:00:10.203Z,2.40
2018-12-08T00:02:45.305Z,2.23
2018-12-08T00:05:15.868Z,2.23
2018-12-08T00:07:47.039Z,2.30
2018-12-08T00:10:17.363Z,2.10
2018-12-08T00:12:47.737Z,1.70
2018-12-08T00:15:18.158Z,1.87
2018-12-08T00:17:48.537Z,2.57
2018-12-08T00:20:19.144Z,2.80
2018-12-08T00:23:09.890Z,2.27
2018-12-08T00:25:40.211Z,2.33
2018-12-08T00:31:38.468Z,2.67
2018-12-08T00:34:09.550Z,2.50
2018-12-08T00:36:40.105Z,2.73
2018-12-08T00:39:13.242Z,2.73
2018-12-08T00:41:44.392Z,2.53
2018-12-08T00:44:18.638Z,3.07
2018-12-08T00:46:48.982Z,2.37
2018-12-08T00:49:19.361Z,2.47
2018-12-08T00:51:50.491Z,2.70
2018-12-08T00:54:21.862Z,2.20
2018-12-08T00:56:52.421Z,2.27
2018-12-08T00:59:26.052Z,2.90
2018-12-08T01:01:56.514Z,2.67
2018-12-08T01:04:26.798Z,2.93
2018-12-08T01:06:57.179Z,1.80
2018-12-08T01:09:27.584Z,2.73
2018-12-08T01:11:58.730Z,2.67
2018-12-08T01:14:29.875Z,2.30
2018-12-08T01:17:01.294Z,2.67
2018-12-08T01:19:31.661Z,2.63
2018-12-08T01:22:02.032Z,2.87
2018-12-08T01:24:34.421Z,2.90
2018-12-08T01:27:04.801Z,3.03
2018-12-08T01:29:35.185Z,3.10
2018-12-08T01:32:05.777Z,2.27
2018-12-08T01:34:36.159Z,2.67
2018-12-08T01:37:07.492Z,3.00
2018-12-08T01:39:37.913Z,2.10
2018-12-08T01:42:08.282Z,2.70
2018-12-08T01:44:38.661Z,2.60
2018-12-08T01:47:09.070Z,2.20
2018-12-08T01:49:43.595Z,2.90
2018-12-08T01:52:15.150Z,2.60
2018-12-08T01:55:04.890Z,2.80
2018-12-08T01:57:35.315Z,2.83
2018-12-08T02:00:05.694Z,3.10
2018-12-08T02:02:36.083Z,2.93
2018-12-08T02:05:06.433Z,3.57
2018-12-08T02:07:58.239Z,3.00
2018-12-08T02:10:28.635Z,3.10
2018-12-08T02:12:59.771Z,2.50
2018-12-08T02:15:30.229Z,2.87
2018-12-08T02:18:02.603Z,3.23
2018-12-08T02:20:32.976Z,3.30
2018-12-08T02:23:03.369Z,2.87
2018-12-08T02:25:33.774Z,2.70
2018-12-08T02:28:04.925Z,2.90
2018-12-08T02:30:35.480Z,2.77
2018-12-08T02:33:07.882Z,2.63
2018-12-08T02:35:38.450Z,3.30
2018-12-08T02:38:08.836Z,3.20
2018-12-08T02:40:39.432Z,2.93
2018-12-08T02:43:09.803Z,2.80
2018-12-08T02:45:48.032Z,2.97
2018-12-08T02:48:18.426Z,3.17
2018-12-08T02:50:48.800Z,3.50
2018-12-08T02:53:19.972Z,3.00
2018-12-08T02:55:50.347Z,2.93
2018-12-08T02:58:20.728Z,2.93
2018-12-08T03:01:10.504Z,3.40
2018-12-08T03:03:43.123Z,3.70
2018-12-08T03:06:13.506Z,3.13
2018-12-08T03:08:45.957Z,2.67
2018-12-08T03:11:16.337Z,3.13
2018-12-08T03:13:46.709Z,3.40
2018-12-08T03:16:17.888Z,2.87
2018-12-08T03:18:50.500Z,3.20
2018-12-08T03:21:21.074Z,3.00
2018-12-08T03:23:51.485Z,3.10
2018-12-08T03:26:22.632Z,3.10
2018-12-08T03:28:53.780Z,2.83
2018-12-08T03:31:24.190Z,3.00
2018-12-08T03:33:55.538Z,3.53
2018-12-08T03:36:25.862Z,3.10
2018-12-08T03:38:56.265Z,3.07
2018-12-08T03:41:26.900Z,3.30
2018-12-08T03:43:57.225Z,3.53
2018-12-08T03:46:27.643Z,3.10
2018-12-08T03:48:57.958Z,2.97
2018-12-08T03:51:30.313Z,2.83
2018-12-08T03:54:00.721Z,2.77
2018-12-08T03:56:31.292Z,2.67
2018-12-08T03:59:01.669Z,2.80
2018-12-08T04:01:32.766Z,3.30
2018-12-08T04:04:03.141Z,3.03
2018-12-08T04:06:34.291Z,2.90
2018-12-08T04:09:04.695Z,2.50
2018-12-08T04:11:46.334Z,3.07
2018-12-08T04:14:20.825Z,2.63
2018-12-08T04:16:51.219Z,2.60
2018-12-08T04:19:21.618Z,3.20
2018-12-08T04:21:54.019Z,2.60
2018-12-08T04:24:24.579Z,3.60
2018-12-08T04:26:54.964Z,2.90
2018-12-08T04:29:25.377Z,2.13
2018-12-08T04:32:15.066Z,2.47
2018-12-08T04:34:45.472Z,2.67
2018-12-08T04:37:21.991Z,2.73
2018-12-08T04:39:53.350Z,3.27
2018-12-08T04:42:24.502Z,3.07
2018-12-08T04:44:55.653Z,3.40
2018-12-08T04:50:12.316Z,2.80
2018-12-08T04:53:04.121Z,3.37
2018-12-08T04:55:34.505Z,3.37
2018-12-08T04:58:04.878Z,2.77
2018-12-08T05:00:35.298Z,3.20
2018-12-08T05:03:05.678Z,3.67
2018-12-08T05:05:36.056Z,4.03
2018-12-08T05:08:06.465Z,2.90
2018-12-08T05:10:36.777Z,2.90
2018-12-08T05:13:07.160Z,2.83
2018-12-08T05:15:57.902Z,3.03
2018-12-08T05:18:29.053Z,3.13
2018-12-08T05:20:59.437Z,2.87
2018-12-08T05:23:29.850Z,2.80
2018-12-08T05:26:05.287Z,2.20
2018-12-08T05:28:35.702Z,2.97
2018-12-08T05:31:06.087Z,3.03
2018-12-08T05:33:36.466Z,3.00
2018-12-08T05:36:06.855Z,2.60
2018-12-08T05:38:37.993Z,3.07
2018-12-08T05:41:09.321Z,3.37
2018-12-08T05:43:39.673Z,3.03
2018-12-08T05:46:10.809Z,2.83
2018-12-08T05:48:41.179Z,3.03
2018-12-08T05:51:11.587Z,3.07
2018-12-08T05:53:41.967Z,3.43
2018-12-08T05:56:12.362Z,3.07
2018-12-08T05:58:42.772Z,2.70
2018-12-08T06:01:13.138Z,2.90
2018-12-08T06:03:43.525Z,3.20
2018-12-08T06:06:13.915Z,2.67
2018-12-08T06:08:44.289Z,3.00
2018-12-08T06:11:14.657Z,2.57
2018-12-08T06:13:45.066Z,3.10
2018-12-08T06:16:22.491Z,2.70
2018-12-08T06:18:52.906Z,2.93
2018-12-08T06:21:23.288Z,2.53
2018-12-08T06:23:53.866Z,2.87
2018-12-08T06:26:24.339Z,2.20
2018-12-08T06:28:54.709Z,2.97
2018-12-08T06:31:25.276Z,2.90
2018-12-08T06:33:56.449Z,3.00
2018-12-08T06:36:26.829Z,3.00
2018-12-08T06:38:57.391Z,3.03
2018-12-08T06:41:27.820Z,3.47
2018-12-08T06:43:58.137Z,3.40
2018-12-08T06:46:28.517Z,2.67
2018-12-08T06:49:08.192Z,2.83
2018-12-08T06:51:38.519Z,3.23
2018-12-08T06:54:08.887Z,2.80
2018-12-08T06:56:39.485Z,2.97
2018-12-08T06:59:10.571Z,2.60
2018-12-08T07:01:43.915Z,3.07
2018-12-08T07:04:15.096Z,2.60
2018-12-08T07:06:45.487Z,3.20
2018-12-08T07:09:23.483Z,3.17
2018-12-08T07:11:53.798Z,2.80
2018-12-08T07:14:45.573Z,3.47
2018-12-08T07:17:15.948Z,2.23
2018-12-08T07:19:46.345Z,2.97
2018-12-08T07:22:17.951Z,3.77
2018-12-08T07:24:49.040Z,2.97
2018-12-08T07:27:20.439Z,2.90
2018-12-08T07:29:51.037Z,3.30
2018-12-08T07:32:21.465Z,2.83
2018-12-08T07:34:57.801Z,2.63
2018-12-08T07:37:28.188Z,3.63
2018-12-08T07:39:58.555Z,2.97
2018-12-08T07:42:28.905Z,3.03
2018-12-08T07:45:00.313Z,4.03
2018-12-08T07:47:31.402Z,4.90
2018-12-08T07:50:01.750Z,2.87
2018-12-08T07:52:32.065Z,2.60
2018-12-08T07:55:08.094Z,4.97
2018-12-08T07:57:40.490Z,3.13
2018-12-08T08:00:12.877Z,3.33
2018-12-08T08:02:43.269Z,4.32
2018-12-08T08:05:13.585Z,3.43
2018-12-08T08:07:43.903Z,3.50
2018-12-08T08:10:14.253Z,3.23
2018-12-08T08:12:46.672Z,3.13
2018-12-08T08:15:17.827Z,3.30
2018-12-08T08:17:48.942Z,3.60
2018-12-08T08:20:19.313Z,3.17
2018-12-08T08:22:49.700Z,3.30
2018-12-08T08:25:20.130Z,4.50
2018-12-08T08:27:50.504Z,3.70
2018-12-08T08:30:23.700Z,3.03
2018-12-08T08:32:55.299Z,2.67
2018-12-08T08:35:25.862Z,3.07
2018-12-08T08:40:41.761Z,3.83
2018-12-08T08:43:12.307Z,3.60
2018-12-08T08:45:42.683Z,3.60
2018-12-08T08:48:13.072Z,3.23
2018-12-08T08:50:43.637Z,3.53
2018-12-08T08:53:14.004Z,3.63
2018-12-08T08:55:47.776Z,3.67
2018-12-08T08:58:18.162Z,3.40
2018-12-08T09:00:48.473Z,3.13
2018-12-08T09:03:20.830Z,3.97
2018-12-08T09:05:52.169Z,4.30
2018-12-08T09:08:22.556Z,3.60
2018-12-08T09:10:52.887Z,4.23
2018-12-08T09:13:42.572Z,3.50
2018-12-08T09:16:12.920Z,3.40
2018-12-08T09:18:43.242Z,4.13
2018-12-08T09:21:13.810Z,3.57
2018-12-08T09:23:44.410Z,3.50
2018-12-08T09:26:21.833Z,3.73
2018-12-08T09:28:52.424Z,4.50
2018-12-08T09:31:24.892Z,3.70
2018-12-08T09:33:58.039Z,3.70
2018-12-08T09:36:29.295Z,3.73
2018-12-08T09:38:59.672Z,3.70
2018-12-08T09:41:30.009Z,3.27
2018-12-08T09:44:08.771Z,3.63
2018-12-08T09:46:41.419Z,4.40
2018-12-08T09:49:12.500Z,3.40
2018-12-08T09:51:42.900Z,5.55
2018-12-08T09:54:15.955Z,4.63
2018-12-08T09:56:52.042Z,4.47
2018-12-08T09:59:22.622Z,3.33
2018-12-08T10:01:52.948Z,3.70
2018-12-08T10:04:23.317Z,3.37
2018-12-08T10:06:53.705Z,3.30
2018-12-08T10:09:27.922Z,2.97
2018-12-08T10:12:01.161Z,3.07
2018-12-08T10:14:34.959Z,2.93
2018-12-08T10:17:09.501Z,3.60
2018-12-08T10:19:45.037Z,5.40
2018-12-08T10:22:20.935Z,3.80
2018-12-08T10:25:10.618Z,3.30
2018-12-08T10:27:46.606Z,3.30
2018-12-08T10:30:18.148Z,3.80
2018-12-08T10:32:48.713Z,4.57
2018-12-08T10:35:19.879Z,4.20
2018-12-08T10:37:50.257Z,3.70
2018-12-08T10:40:28.162Z,4.20
2018-12-08T10:42:58.728Z,3.97
2018-12-08T10:45:31.559Z,3.40
2018-12-08T10:48:04.653Z,3.53
2018-12-08T10:50:42.687Z,4.17
2018-12-08T10:53:13.093Z,3.17
2018-12-08T10:55:43.476Z,5.13
2018-12-08T10:58:14.057Z,3.83
2018-12-08T11:01:05.418Z,4.07
2018-12-08T11:03:45.642Z,4.10
2018-12-08T11:06:17.211Z,5.95
2018-12-08T11:08:47.545Z,4.07
2018-12-08T11:11:17.941Z,3.73
2018-12-08T11:13:51.043Z,3.50
2018-12-08T11:16:38.997Z,3.87
2018-12-08T11:19:12.170Z,4.20
2018-12-08T11:21:45.613Z,3.43
2018-12-08T11:24:21.459Z,3.30
2018-12-08T11:26:53.747Z,4.60
2018-12-08T11:29:31.471Z,4.40
2018-12-08T11:32:04.210Z,3.80
2018-12-08T11:34:37.200Z,4.60
2018-12-08T11:37:12.445Z,3.47
2018-12-08T11:39:50.810Z,3.40
2018-12-08T11:42:29.937Z,3.77
2018-12-08T11:45:03.082Z,3.77
2018-12-08T11:47:34.671Z,3.03
2018-12-08T11:52:53.492Z,3.37
2018-12-08T11:55:32.252Z,3.70
2018-12-08T11:58:02.649Z,4.80
2018-12-08T12:00:35.836Z,3.90
2018-12-08T12:03:06.094Z,3.97
2018-12-08T12:05:36.494Z,4.97
2018-12-08T12:08:07.820Z,4.30
2018-12-08T12:10:38.965Z,3.97
2018-12-08T12:13:12.070Z,4.30
2018-12-08T12:15:45.050Z,3.97
2018-12-08T12:18:21.880Z,4.53
2018-12-08T12:20:58.735Z,3.93
2018-12-08T12:23:30.142Z,4.10
2018-12-08T12:26:01.231Z,4.60
2018-12-08T12:28:37.768Z,3.77
2018-12-08T12:31:13.842Z,4.23
2018-12-08T12:33:44.208Z,4.07
2018-12-08T12:36:14.771Z,5.77
2018-12-08T12:38:45.151Z,6.12
2018-12-08T12:41:15.738Z,5.75
2018-12-08T12:43:47.249Z,6.60
2018-12-08T12:46:31.745Z,4.20
2018-12-08T12:49:03.206Z,4.53
2018-12-08T12:51:34.626Z,3.50
2018-12-08T12:54:05.066Z,4.33
2018-12-08T12:56:36.227Z,4.47
2018-12-08T12:59:06.616Z,4.63
2018-12-08T13:01:36.918Z,4.77
2018-12-08T13:04:27.815Z,4.40
2018-12-08T13:07:00.278Z,3.93
2018-12-08T13:09:33.540Z,4.80
2018-12-08T13:12:06.761Z,3.90
2018-12-08T13:14:37.039Z,4.90
2018-12-08T13:17:07.419Z,3.90
2018-12-08T13:19:37.826Z,3.83
2018-12-08T13:22:10.690Z,4.90
2018-12-08T13:24:47.463Z,4.53
2018-12-08T13:27:17.923Z,3.80
2018-12-08T13:29:50.992Z,3.77
2018-12-08T13:32:25.346Z,3.83
2018-12-08T13:34:58.380Z,4.03
2018-12-08T13:37:28.845Z,4.10
2018-12-08T13:40:01.325Z,3.57
2018-12-08T13:42:51.975Z,3.87
2018-12-08T13:45:24.859Z,3.90
2018-12-08T13:47:56.643Z,3.90
2018-12-08T13:50:26.865Z,3.83
2018-12-08T13:52:57.485Z,4.13
2018-12-08T13:55:30.704Z,3.90
2018-12-08T13:58:04.395Z,3.80
2018-12-08T14:00:35.584Z,3.87
2018-12-08T14:03:06.932Z,3.90
2018-12-08T14:05:41.857Z,4.07
2018-12-08T14:08:12.291Z,3.23
2018-12-08T14:10:42.715Z,3.53
2018-12-08T14:13:19.104Z,3.93
2018-12-08T14:15:49.522Z,3.20
2018-12-08T14:18:25.049Z,3.70
2018-12-08T14:20:58.238Z,3.40
2018-12-08T14:23:28.682Z,3.73
2018-12-08T14:26:02.517Z,3.33
2018-12-08T14:28:33.493Z,3.10
2018-12-08T14:31:04.216Z,3.40
2018-12-08T14:33:40.594Z,3.20
2018-12-08T14:36:24.142Z,2.80
2018-12-08T14:38:58.017Z,3.07
2018-12-08T14:44:13.700Z,3.27
2018-12-08T14:46:57.838Z,2.77
2018-12-08T14:49:39.311Z,2.67
2018-12-08T14:52:30.551Z,3.47
2018-12-08T14:55:04.838Z,3.10
2018-12-08T14:57:37.847Z,3.90
2018-12-08T15:00:17.913Z,2.97
2018-12-08T15:02:48.309Z,2.80
2018-12-08T15:05:19.224Z,2.43
2018-12-08T15:07:50.423Z,2.73
2018-12-08T15:10:22.007Z,3.03
2018-12-08T15:12:52.333Z,3.00
2018-12-08T15:15:31.180Z,3.10
2018-12-08T15:20:52.819Z,3.90
2018-12-08T15:23:23.953Z,3.47
2018-12-08T15:25:56.305Z,2.97
2018-12-08T15:28:29.501Z,3.30
2018-12-08T15:30:59.880Z,3.83
2018-12-08T15:33:35.200Z,4.10
2018-12-08T15:36:05.770Z,3.47
2018-12-08T15:38:36.332Z,3.70
2018-12-08T15:41:12.166Z,2.77
2018-12-08T15:43:42.473Z,2.53
2018-12-08T15:46:20.132Z,2.13
2018-12-08T15:48:51.218Z,2.37
2018-12-08T15:51:21.601Z,3.10
2018-12-08T15:53:55.651Z,2.93
2018-12-08T15:56:32.169Z,2.40
2018-12-08T15:59:02.777Z,2.00
2018-12-08T16:01:35.616Z,2.60
2018-12-08T16:04:08.708Z,2.73
2018-12-08T16:06:42.091Z,3.80
2018-12-08T16:09:13.220Z,3.40
2018-12-08T16:11:44.397Z,2.87
2018-12-08T16:14:14.710Z,2.43
2018-12-08T16:16:45.851Z,4.70
2018-12-08T16:19:19.783Z,3.30
2018-12-08T16:21:51.385Z,2.50
2018-12-08T16:24:21.704Z,2.50
2018-12-08T16:26:52.108Z,2.60
2018-12-08T16:29:24.533Z,2.43
2018-12-08T16:31:58.306Z,2.40
2018-12-08T16:34:31.229Z,2.80
2018-12-08T16:37:05.137Z,2.47
2018-12-08T16:39:35.517Z,2.23
2018-12-08T16:42:08.781Z,1.57
2018-12-08T16:44:41.871Z,2.20
2018-12-08T16:47:12.253Z,2.23
2018-12-08T16:49:42.824Z,2.00
2018-12-08T16:52:16.020Z,1.87
2018-12-08T16:54:46.341Z,2.20
2018-12-08T16:57:16.673Z,2.23
2018-12-08T16:59:47.084Z,1.70
2018-12-08T17:02:20.068Z,1.40
2018-12-08T17:04:50.627Z,1.97
2018-12-08T17:07:23.080Z,1.67
2018-12-08T17:09:58.877Z,1.63
2018-12-08T17:12:29.226Z,1.47
2018-12-08T17:14:59.561Z,1.60
2018-12-08T17:17:30.647Z,1.53
2018-12-08T17:20:04.129Z,1.63
2018-12-08T17:22:34.687Z,1.37
2018-12-08T17:25:05.241Z,1.40
2018-12-08T17:27:39.527Z,1.80
2018-12-08T17:30:20.228Z,1.87
2018-12-08T17:32:53.544Z,2.03
2018-12-08T17:35:27.709Z,2.13
2018-12-08T17:38:02.226Z,1.73
2018-12-08T17:40:32.540Z,2.03
2018-12-08T17:43:03.110Z,2.03
2018-12-08T17:45:39.216Z,1.50
2018-12-08T17:50:53.399Z,1.23
2018-12-08T17:53:26.899Z,1.53
2018-12-08T17:55:57.465Z,1.60
2018-12-08T17:58:27.805Z,1.90
2018-12-08T18:00:58.379Z,1.73
2018-12-08T18:03:28.946Z,1.60
2018-12-08T18:05:59.634Z,1.20
2018-12-08T18:08:38.229Z,1.43
2018-12-08T18:11:09.409Z,1.80
2018-12-08T18:13:39.777Z,1.07
2018-12-08T18:16:10.148Z,1.20
2018-12-08T18:18:46.253Z,1.23
2018-12-08T18:21:16.657Z,1.10
2018-12-08T18:23:46.965Z,1.10
2018-12-08T18:26:17.549Z,0.93
2018-12-08T18:28:47.934Z,1.00
2018-12-08T18:31:24.042Z,1.23
2018-12-08T18:33:58.326Z,1.37
2018-12-08T18:36:30.169Z,1.67
2018-12-08T18:39:03.055Z,1.77
2018-12-08T18:41:33.429Z,1.73
2018-12-08T18:44:03.820Z,1.23
2018-12-08T18:46:34.193Z,1.57
2018-12-08T18:49:04.560Z,1.77
2018-12-08T18:51:34.966Z,2.03
2018-12-08T18:54:06.104Z,1.37
2018-12-08T18:56:39.908Z,1.37
2018-12-08T18:59:10.989Z,0.93
2018-12-08T19:01:41.372Z,1.37
2018-12-08T19:04:13.833Z,2.00
2018-12-08T19:06:49.878Z,1.40
2018-12-08T19:09:20.285Z,1.83
2018-12-08T19:11:50.606Z,1.60
2018-12-08T19:14:20.977Z,1.77
2018-12-08T19:16:54.375Z,1.30
2018-12-08T19:19:27.437Z,1.37
2018-12-08T19:22:01.541Z,1.87
2018-12-08T19:24:32.111Z,1.43
2018-12-08T19:27:02.437Z,1.23
2018-12-08T19:29:32.835Z,1.73
2018-12-08T19:32:05.741Z,1.83
2018-12-08T19:34:36.056Z,1.80
2018-12-08T19:37:06.402Z,1.83
2018-12-08T19:39:39.422Z,1.90
2018-12-08T19:42:12.666Z,1.90
2018-12-08T19:44:43.045Z,2.10
2018-12-08T19:47:13.426Z,2.10
2018-12-08T19:49:46.520Z,2.03
2018-12-08T19:52:17.866Z,2.00
2018-12-08T19:54:50.890Z,1.97
2018-12-08T19:57:21.270Z,2.20
2018-12-08T19:59:51.646Z,2.27
2018-12-08T20:05:05.451Z,2.67
2018-12-08T20:07:36.050Z,2.20
2018-12-08T20:10:06.439Z,2.57
2018-12-08T20:12:36.807Z,2.90
2018-12-08T20:15:10.086Z,1.80
2018-12-08T20:17:44.120Z,2.20
2018-12-08T20:20:17.371Z,2.90
2018-12-08T20:22:48.513Z,2.20
2018-12-08T20:25:19.657Z,2.17
2018-12-08T20:27:51.013Z,2.00
2018-12-08T20:30:22.343Z,2.60
2018-12-08T20:32:58.088Z,2.70
2018-12-08T20:35:28.647Z,1.93
2018-12-08T20:38:05.562Z,3.03
2018-12-08T20:40:54.492Z,2.73
2018-12-08T20:43:27.449Z,2.53
2018-12-08T20:46:00.605Z,3.50
2018-12-08T20:48:38.772Z,2.87
2018-12-08T20:51:09.904Z,2.27
2018-12-08T20:53:46.256Z,2.37
2018-12-08T20:56:16.705Z,3.67
2018-12-08T20:58:52.694Z,3.17
2018-12-08T21:01:23.025Z,3.10
2018-12-08T21:03:57.437Z,3.23
2018-12-08T21:06:30.001Z,4.20
2018-12-08T21:09:05.949Z,3.80
2018-12-08T21:11:39.704Z,4.27
2018-12-08T21:14:17.194Z,3.63
2018-12-08T21:17:11.762Z,4.07
2018-12-08T21:19:47.356Z,4.23
2018-12-08T21:22:17.701Z,4.43
2018-12-08T21:24:51.111Z,4.77
2018-12-08T21:27:22.491Z,4.20
2018-12-08T21:29:54.854Z,5.10
2018-12-08T21:32:28.051Z,4.40
2018-12-08T21:35:09.170Z,4.20
2018-12-08T21:37:39.516Z,4.47
2018-12-08T21:40:13.560Z,3.73
2018-12-08T21:42:43.968Z,4.47
2018-12-08T21:45:15.135Z,4.27
2018-12-08T21:47:48.305Z,4.50
2018-12-08T21:50:19.457Z,4.57
2018-12-08T21:52:52.544Z,4.73
2018-12-08T21:55:31.734Z,4.70
2018-12-08T21:58:04.758Z,4.93
2018-12-08T22:03:22.231Z,3.97
2018-12-08T22:06:03.034Z,3.90
2018-12-08T22:08:35.864Z,4.03
2018-12-08T22:11:06.186Z,3.47
2018-12-08T22:13:39.481Z,4.00
2018-12-08T22:16:10.630Z,4.40
2018-12-08T22:18:44.386Z,4.03
2018-12-08T22:21:17.468Z,4.20
2018-12-08T22:24:06.946Z,3.93
2018-12-08T22:26:37.354Z,4.33
2018-12-08T22:29:21.183Z,4.10
2018-12-08T22:31:51.582Z,3.87
2018-12-08T22:34:25.596Z,4.47
2018-12-08T22:36:59.471Z,4.40
2018-12-08T22:39:34.039Z,4.17
2018-12-08T22:42:07.785Z,4.77
2018-12-08T22:44:38.384Z,4.40
2018-12-08T22:47:08.711Z,4.87
2018-12-08T22:49:41.751Z,4.43
2018-12-08T22:52:12.321Z,5.20
2018-12-08T22:54:42.700Z,5.00
2018-12-08T22:57:15.213Z,5.40
2018-12-08T22:59:46.307Z,4.47
2018-12-08T23:02:20.799Z,5.17
2018-12-08T23:04:52.397Z,4.63
2018-12-08T23:07:25.541Z,4.40
2018-12-08T23:09:55.969Z,4.53
2018-12-08T23:12:26.284Z,5.40
2018-12-08T23:14:56.609Z,4.70
2018-12-08T23:17:29.736Z,4.70
2018-12-08T23:20:19.493Z,5.97
2018-12-08T23:22:50.090Z,4.70
2018-12-08T23:25:20.660Z,4.53
2018-12-08T23:27:53.943Z,4.70
2018-12-08T23:30:24.268Z,4.23
2018-12-08T23:32:54.594Z,4.07
2018-12-08T23:35:24.991Z,5.20
2018-12-08T23:37:55.407Z,4.40
2018-12-08T23:40:25.788Z,5.07
2018-12-08T23:42:58.997Z,4.00
2018-12-08T23:45:29.281Z,4.47
2018-12-08T23:48:03.111Z,4.73
2018-12-08T23:50:33.432Z,4.50
2018-12-08T23:53:03.830Z,4.33
2018-12-08T23:55:34.978Z,4.30
2018-12-08T23:58:05.376Z,3.20
